Time;durP1;ratioP1;P1;durP2;ratioP2;P2;SDS_P1;SDS_P2;PMS_P1;PMS_P2;Temp;Humidity;BMP_temperature;BMP_pressure;BME280_temperature;BME280_humidity;BME280_pressure;Samples;Min_cycle;Max_cycle;Signal;HPM_P1;HPM_P2
2021/10/27 00:00:47;;;;;;;59.58;8.43;;;8.60;99.90;;;;;;1870408;75;21198;-72
2021/10/27 00:03:13;;;;;;;21.30;9.15;;;8.40;99.90;;;;;;1881769;76;21083;-75
2021/10/27 00:05:39;;;;;;;67.27;8.78;;;8.40;99.90;;;;;;1861355;75;21080;-74
2021/10/27 00:08:05;;;;;;;49.08;8.00;;;8.40;99.90;;;;;;1883859;74;21232;-75
2021/10/27 00:10:32;;;;;;;70.08;7.75;;;8.30;99.90;;;;;;1876413;75;21083;-74
2021/10/27 00:12:58;;;;;;;46.95;6.87;;;8.30;99.90;;;;;;1869529;74;21599;-75
2021/10/27 00:15:25;;;;;;;31.30;6.80;;;8.20;99.90;;;;;;1863062;75;21570;-75
2021/10/27 00:17:51;;;;;;;32.85;7.22;;;8.10;99.90;;;;;;1865983;74;21081;-75
2021/10/27 00:20:17;;;;;;;24.27;7.85;;;8.00;99.90;;;;;;1872568;75;21066;-75
2021/10/27 00:22:44;;;;;;;68.83;7.80;;;8.10;99.90;;;;;;1874116;75;21079;-74
2021/10/27 00:25:11;;;;;;;20.20;8.03;;;7.90;99.90;;;;;;1878673;75;21096;-75
2021/10/27 00:27:37;;;;;;;76.80;8.23;;;7.90;99.90;;;;;;1860746;74;21090;-74
2021/10/27 00:30:04;;;;;;;27.60;7.30;;;7.80;99.90;;;;;;1874313;76;21100;-75
2021/10/27 00:32:30;;;;;;;26.42;7.85;;;7.80;99.90;;;;;;1878590;75;21096;-76
2021/10/27 00:34:56;;;;;;;32.55;7.90;;;7.80;99.90;;;;;;1877929;76;21065;-76
2021/10/27 00:37:22;;;;;;;49.95;8.13;;;7.80;99.90;;;;;;1883463;75;21076;-76
2021/10/27 00:39:49;;;;;;;52.40;8.70;;;7.80;99.90;;;;;;1874295;74;21126;-76
2021/10/27 00:42:15;;;;;;;29.25;8.68;;;7.70;99.90;;;;;;1862179;74;21219;-76
2021/10/27 00:44:41;;;;;;;42.35;9.08;;;7.70;99.90;;;;;;1871392;75;21095;-76
2021/10/27 00:47:07;;;;;;;41.37;8.58;;;7.70;99.90;;;;;;1880723;75;21083;-76
2021/10/27 00:49:33;;;;;;;30.85;9.13;;;7.70;99.90;;;;;;1880173;74;21463;-76
2021/10/27 00:51:59;;;;;;;42.80;8.53;;;7.60;99.90;;;;;;1864623;76;21544;-75
2021/10/27 00:54:25;;;;;;;25.00;8.65;;;7.60;99.90;;;;;;1873526;75;21509;-75
2021/10/27 00:56:51;;;;;;;25.72;8.23;;;7.50;99.90;;;;;;1858715;76;21736;-75
2021/10/27 00:59:18;;;;;;;10.45;6.37;;;7.50;99.90;;;;;;1882794;74;21068;-75
2021/10/27 01:01:44;;;;;;;24.40;7.87;;;7.50;99.90;;;;;;1856331;75;21077;-76
2021/10/27 01:04:10;;;;;;;22.75;7.55;;;7.40;99.90;;;;;;1865040;75;21088;-76
2021/10/27 01:06:36;;;;;;;9.30;6.62;;;7.30;99.90;;;;;;1877435;75;21075;-77
2021/10/27 01:09:02;;;;;;;20.97;7.67;;;7.30;99.90;;;;;;1879388;74;21559;-76
2021/10/27 01:11:28;;;;;;;16.32;7.72;;;7.30;99.90;;;;;;1881913;75;21057;-76
2021/10/27 01:13:54;;;;;;;17.82;6.70;;;7.20;99.90;;;;;;1889185;74;21193;-75
2021/10/27 01:16:20;;;;;;;22.98;7.28;;;7.20;99.90;;;;;;1878865;75;21170;-75
2021/10/27 01:18:47;;;;;;;21.02;7.33;;;7.20;99.90;;;;;;1868730;74;21137;-75
2021/10/27 01:21:13;;;;;;;18.00;7.80;;;7.20;99.90;;;;;;1880697;75;21079;-74
2021/10/27 01:23:39;;;;;;;32.15;7.60;;;7.20;99.90;;;;;;1869808;74;21060;-75
2021/10/27 01:26:05;;;;;;;13.83;7.03;;;7.10;99.90;;;;;;1870970;75;21080;-75
2021/10/27 01:28:31;;;;;;;14.98;7.35;;;7.10;99.90;;;;;;1878940;75;21087;-75
2021/10/27 01:30:57;;;;;;;37.73;7.45;;;7.10;99.90;;;;;;1888421;75;21511;-74
2021/10/27 01:33:23;;;;;;;24.23;7.60;;;7.10;99.90;;;;;;1873188;75;21069;-74
2021/10/27 01:35:49;;;;;;;16.85;7.08;;;7.00;99.90;;;;;;1871931;74;21097;-73
2021/10/27 01:38:16;;;;;;;14.63;6.90;;;7.10;99.90;;;;;;1869564;75;21155;-74
2021/10/27 01:40:42;;;;;;;29.00;7.62;;;7.10;99.90;;;;;;1864049;76;21088;-75
2021/10/27 01:43:08;;;;;;;38.83;6.20;;;7.00;99.90;;;;;;1879727;75;21079;-73
2021/10/27 01:45:34;;;;;;;10.43;6.58;;;7.00;99.90;;;;;;1866148;74;21087;-74
2021/10/27 01:48:00;;;;;;;26.27;6.80;;;6.90;99.90;;;;;;1868597;75;21095;-76
2021/10/27 01:50:27;;;;;;;41.98;6.62;;;6.80;99.90;;;;;;1868507;76;21183;-76
2021/10/27 01:52:53;;;;;;;29.25;7.22;;;6.80;99.90;;;;;;1885902;76;21626;-76
2021/10/27 01:55:19;;;;;;;33.40;7.05;;;6.70;99.90;;;;;;1868907;75;21488;-76
2021/10/27 01:57:45;;;;;;;25.17;6.87;;;6.80;99.90;;;;;;1885969;75;21519;-76
2021/10/27 02:00:11;;;;;;;32.88;7.42;;;6.70;99.90;;;;;;1882030;75;21530;-76
2021/10/27 02:02:37;;;;;;;17.35;6.95;;;6.60;99.90;;;;;;1883430;76;21125;-76
2021/10/27 02:05:03;;;;;;;34.40;7.67;;;6.60;99.90;;;;;;1885110;75;21157;-76
2021/10/27 02:07:29;;;;;;;28.75;7.47;;;6.70;99.90;;;;;;1883030;74;21158;-76
2021/10/27 02:09:56;;;;;;;37.88;8.23;;;6.70;99.90;;;;;;1878179;75;21079;-76
2021/10/27 02:12:22;;;;;;;25.80;7.17;;;6.70;99.90;;;;;;1878391;75;21512;-76
2021/10/27 02:14:48;;;;;;;12.85;7.35;;;6.70;99.90;;;;;;1861306;75;21581;-76
2021/10/27 02:17:14;;;;;;;50.73;8.18;;;6.80;99.90;;;;;;1876388;74;21500;-76
2021/10/27 02:19:40;;;;;;;33.85;8.20;;;6.70;99.90;;;;;;1866560;74;21073;-76
2021/10/27 02:22:07;;;;;;;14.75;7.17;;;6.70;99.90;;;;;;1880403;75;21142;-76
2021/10/27 02:24:33;;;;;;;33.60;8.48;;;6.70;99.90;;;;;;1878433;74;21485;-76
2021/10/27 02:26:59;;;;;;;32.17;8.20;;;6.70;99.90;;;;;;1870731;75;21629;-75
2021/10/27 02:29:26;;;;;;;14.30;8.28;;;6.70;99.90;;;;;;1869529;75;21088;-76
2021/10/27 02:31:52;;;;;;;36.83;8.38;;;6.80;99.90;;;;;;1865153;76;21091;-75
2021/10/27 02:34:18;;;;;;;36.68;9.00;;;6.70;99.90;;;;;;1873417;76;21093;-76
2021/10/27 02:36:44;;;;;;;36.65;8.95;;;6.70;99.90;;;;;;1878370;74;21060;-75
2021/10/27 02:39:10;;;;;;;26.57;8.15;;;6.70;99.90;;;;;;1875055;76;21084;-76
2021/10/27 02:41:36;;;;;;;90.42;9.58;;;6.70;99.90;;;;;;1863992;75;21070;-76
2021/10/27 02:44:03;;;;;;;297.00;13.13;;;6.60;99.90;;;;;;1876232;74;21247;-75
2021/10/27 02:46:29;;;;;;;91.60;9.73;;;6.60;99.90;;;;;;1884858;74;21201;-76
2021/10/27 02:48:55;;;;;;;95.30;10.32;;;6.50;99.90;;;;;;1876607;74;21065;-75
2021/10/27 02:51:22;;;;;;;34.90;8.50;;;6.60;99.90;;;;;;1888263;74;21190;-75
2021/10/27 02:53:48;;;;;;;76.57;9.98;;;6.60;99.90;;;;;;1882151;75;21083;-75
2021/10/27 02:56:14;;;;;;;72.92;8.80;;;6.60;99.90;;;;;;1875477;75;21153;-75
2021/10/27 02:58:42;;;;;;;101.80;9.25;;;6.60;99.90;;;;;;1871109;75;21143;-75
2021/10/27 03:01:08;;;;;;;49.03;8.38;;;6.60;99.90;;;;;;1866137;74;21126;-75
2021/10/27 03:03:34;;;;;;;99.07;9.23;;;6.60;99.90;;;;;;1883455;76;21187;-76
2021/10/27 03:06:01;;;;;;;92.08;9.60;;;6.60;99.90;;;;;;1881359;75;21079;-75
2021/10/27 03:08:27;;;;;;;99.72;8.35;;;6.60;99.90;;;;;;1868776;75;21243;-75
2021/10/27 03:10:53;;;;;;;124.95;9.18;;;6.50;99.90;;;;;;1865255;76;21139;-75
2021/10/27 03:13:20;;;;;;;28.00;7.50;;;6.40;99.90;;;;;;1860337;75;21234;-76
2021/10/27 03:15:46;;;;;;;105.45;9.75;;;6.40;99.90;;;;;;1869775;74;21065;-76
2021/10/27 03:18:12;;;;;;;80.75;8.60;;;6.30;99.90;;;;;;1872512;75;21139;-75
2021/10/27 03:20:38;;;;;;;37.83;8.70;;;6.30;99.90;;;;;;1877681;74;21282;-76
2021/10/27 03:23:04;;;;;;;61.83;8.30;;;6.40;99.90;;;;;;1867675;75;21085;-76
2021/10/27 03:25:30;;;;;;;26.30;8.23;;;6.30;99.90;;;;;;1871923;76;21167;-75
2021/10/27 03:27:57;;;;;;;124.70;10.13;;;6.30;99.90;;;;;;1874616;75;21076;-74
2021/10/27 03:30:23;;;;;;;89.90;8.48;;;6.30;99.90;;;;;;1865483;76;21069;-75
2021/10/27 03:32:51;;;;;;;49.85;8.15;;;6.30;99.90;;;;;;1852792;75;21152;-75
2021/10/27 03:35:17;;;;;;;101.20;9.45;;;6.30;99.90;;;;;;1879450;75;21092;-75
2021/10/27 03:37:43;;;;;;;64.87;7.75;;;6.20;99.90;;;;;;1859303;75;21157;-76
2021/10/27 03:40:10;;;;;;;34.35;7.15;;;6.10;99.90;;;;;;1877063;76;21608;-76
2021/10/27 03:42:36;;;;;;;29.23;7.47;;;6.10;99.90;;;;;;1876424;75;21145;-76
2021/10/27 03:45:02;;;;;;;34.58;7.97;;;6.00;99.90;;;;;;1869100;75;21084;-75
2021/10/27 03:47:28;;;;;;;38.28;8.38;;;6.00;99.90;;;;;;1873435;76;21056;-75
2021/10/27 03:49:57;;;;;;;46.20;9.80;;;6.00;99.90;;;;;;1878541;76;21064;-75
2021/10/27 03:52:23;;;;;;;26.80;7.67;;;5.90;99.90;;;;;;1884251;74;21183;-76
2021/10/27 03:54:50;;;;;;;26.27;8.40;;;6.00;99.90;;;;;;1883285;75;21095;-75
2021/10/27 03:57:16;;;;;;;37.53;8.30;;;6.00;99.90;;;;;;1871032;75;21219;-75
2021/10/27 03:59:42;;;;;;;16.77;7.60;;;6.00;99.90;;;;;;1874197;74;21088;-74
2021/10/27 04:02:08;;;;;;;66.47;8.48;;;6.10;99.90;;;;;;1848706;76;21512;-76
2021/10/27 04:04:34;;;;;;;43.85;8.50;;;6.00;99.90;;;;;;1856558;75;21683;-75
2021/10/27 04:07:01;;;;;;;29.50;8.55;;;6.00;99.90;;;;;;1872717;74;21095;-76
2021/10/27 04:09:27;;;;;;;67.25;9.93;;;6.00;99.90;;;;;;1869620;74;21627;-76
2021/10/27 04:11:53;;;;;;;96.42;9.25;;;6.00;99.90;;;;;;1883471;75;21539;-77
2021/10/27 04:14:19;;;;;;;32.70;7.92;;;6.00;99.90;;;;;;1879342;76;21487;-77
2021/10/27 04:16:45;;;;;;;36.73;8.30;;;5.90;99.90;;;;;;1882106;76;21573;-78
2021/10/27 04:19:11;;;;;;;46.35;7.83;;;6.00;99.90;;;;;;1875871;75;21166;-78
2021/10/27 04:21:38;;;;;;;13.35;6.37;;;5.90;99.90;;;;;;1865045;75;21076;-79
2021/10/27 04:24:04;;;;;;;20.80;7.15;;;5.90;99.90;;;;;;1871912;74;21158;-78
2021/10/27 04:26:31;;;;;;;40.63;6.72;;;5.80;99.90;;;;;;1879316;75;21101;-78
2021/10/27 04:28:57;;;;;;;27.87;7.15;;;5.80;99.90;;;;;;1871945;76;21056;-77
2021/10/27 04:31:23;;;;;;;32.17;7.55;;;5.80;99.90;;;;;;1858904;75;21097;-78
2021/10/27 04:33:49;;;;;;;19.57;7.30;;;5.80;99.90;;;;;;1880656;74;21582;-77
2021/10/27 04:36:15;;;;;;;37.63;7.12;;;5.80;99.90;;;;;;1859291;76;21508;-77
2021/10/27 04:38:41;;;;;;;18.48;7.20;;;5.80;99.90;;;;;;1881453;75;21503;-77
2021/10/27 04:41:07;;;;;;;49.50;7.55;;;5.80;99.90;;;;;;1882143;76;21460;-77
2021/10/27 04:43:33;;;;;;;27.22;7.80;;;5.80;99.90;;;;;;1868281;75;21160;-78
2021/10/27 04:46:00;;;;;;;14.05;8.08;;;5.80;99.90;;;;;;1889178;74;21079;-78
2021/10/27 04:48:26;;;;;;;17.87;9.28;;;5.90;99.90;;;;;;1878199;76;21088;-78
2021/10/27 04:50:52;;;;;;;16.07;7.80;;;5.80;99.90;;;;;;1883184;75;21138;-77
2021/10/27 04:53:18;;;;;;;29.75;7.40;;;5.90;99.90;;;;;;1886330;75;21214;-77
2021/10/27 04:55:44;;;;;;;10.88;7.30;;;5.90;99.90;;;;;;1882581;74;21079;-78
2021/10/27 04:58:10;;;;;;;52.00;8.40;;;5.90;99.90;;;;;;1865689;75;21180;-77
2021/10/27 05:00:36;;;;;;;33.00;7.87;;;5.80;99.90;;;;;;1874588;76;21083;-77
2021/10/27 05:03:03;;;;;;;31.02;7.85;;;5.80;99.90;;;;;;1885319;75;21053;-76
2021/10/27 05:05:29;;;;;;;68.62;7.62;;;5.80;99.90;;;;;;1882703;75;21424;-76
2021/10/27 05:07:58;;;;;;;10.13;7.15;;;5.80;99.90;;;;;;1865799;75;21077;-75
2021/10/27 05:10:23;;;;;;;38.95;7.92;;;5.80;99.90;;;;;;1883801;74;21554;-75
2021/10/27 05:12:53;;;;;;;39.25;6.60;;;5.90;99.90;;;;;;1871841;75;21066;-78
2021/10/27 05:15:18;;;;;;;19.17;8.40;;;5.80;99.90;;;;;;1880006;74;21072;-77
2021/10/27 05:17:44;;;;;;;33.88;9.18;;;5.70;99.90;;;;;;1877740;75;21072;-82
2021/10/27 05:20:10;;;;;;;14.43;8.65;;;5.70;99.90;;;;;;1867922;76;21478;-80
2021/10/27 05:22:36;;;;;;;12.88;10.08;;;5.70;99.90;;;;;;1870807;74;21135;-79
2021/10/27 05:25:02;;;;;;;35.80;11.57;;;5.80;99.90;;;;;;1872910;75;21222;-78
2021/10/27 05:27:30;;;;;;;54.00;10.45;;;5.80;99.90;;;;;;1864540;74;21083;-77
2021/10/27 05:29:56;;;;;;;21.97;11.03;;;5.80;99.90;;;;;;1884169;75;21194;-76
2021/10/27 05:32:24;;;;;;;24.57;11.38;;;5.80;99.90;;;;;;1875449;75;21157;-74
2021/10/27 05:34:50;;;;;;;49.55;10.53;;;5.80;99.90;;;;;;1871901;74;21226;-77
2021/10/27 05:37:16;;;;;;;35.85;12.88;;;5.80;99.90;;;;;;1861290;76;21065;-76
2021/10/27 05:39:42;;;;;;;32.95;12.25;;;5.80;99.90;;;;;;1880217;75;21145;-77
2021/10/27 05:42:18;;;;;;;25.60;12.43;;;5.70;99.90;;;;;;1880357;76;21068;-76
2021/10/27 05:44:36;;;;;;;23.57;13.35;;;5.80;99.90;;;;;;1859274;74;21530;-74
2021/10/27 05:47:02;;;;;;;40.10;13.45;;;5.70;99.90;;;;;;1869915;75;21145;-74
2021/10/27 05:49:45;;;;;;;47.25;12.80;;;5.70;99.90;;;;;;1853737;76;21085;-77
2021/10/27 05:57:17;;;;;;;43.00;10.18;;;5.60;99.90;;;;;;1875162;74;21542;-72
2021/10/27 05:59:44;;;;;;;15.95;11.15;;;5.60;99.90;;;;;;1873322;76;21533;-75
2021/10/27 06:02:10;;;;;;;29.92;10.40;;;5.60;99.90;;;;;;1870564;75;21073;-72
2021/10/27 06:04:36;;;;;;;20.20;11.22;;;5.60;99.90;;;;;;1878723;75;21127;-73
2021/10/27 06:07:02;;;;;;;20.95;10.28;;;5.50;99.90;;;;;;1881519;75;21472;-72
2021/10/27 06:09:28;;;;;;;18.48;9.65;;;5.60;99.90;;;;;;1862693;75;21609;-73
2021/10/27 06:11:59;;;;;;;21.52;9.15;;;5.50;99.90;;;;;;1883917;75;21500;-73
2021/10/27 06:14:22;;;;;;;16.85;9.58;;;5.60;99.90;;;;;;1864424;76;21493;-73
2021/10/27 06:16:48;;;;;;;18.62;8.93;;;5.60;99.90;;;;;;1873631;75;21130;-73
2021/10/27 06:19:15;;;;;;;18.10;8.43;;;5.60;99.90;;;;;;1878209;74;21088;-73
2021/10/27 06:21:41;;;;;;;12.82;8.83;;;5.60;99.90;;;;;;1854082;76;21088;-73
2021/10/27 06:24:07;;;;;;;9.60;7.90;;;5.50;99.90;;;;;;1881324;75;21087;-73
2021/10/27 06:26:33;;;;;;;9.45;7.70;;;5.50;99.90;;;;;;1865675;76;21179;-74
2021/10/27 06:31:34;;;;;;;12.43;8.30;;;5.60;99.90;;;;;;1883250;75;21109;-74
2021/10/27 06:36:38;;;;;;;17.98;8.28;;;5.50;99.90;;;;;;1872731;74;21088;-74
2021/10/27 06:46:55;;;;;;;17.70;8.50;;;5.50;99.90;;;;;;1876593;75;21480;-73
2021/10/27 06:49:22;;;;;;;15.25;8.40;;;5.50;99.90;;;;;;1872797;76;21139;-73
2021/10/27 06:51:48;;;;;;;12.85;9.20;;;5.50;99.90;;;;;;1857856;74;21205;-74
2021/10/27 06:54:14;;;;;;;24.43;9.98;;;5.60;99.90;;;;;;1866648;75;21197;-73
2021/10/27 06:56:41;;;;;;;13.18;8.55;;;5.60;99.90;;;;;;1884077;74;21083;-73
2021/10/27 06:59:12;;;;;;;10.85;8.03;;;5.60;99.90;;;;;;1875732;74;21344;-73
2021/10/27 07:17:26;;;;;;;16.55;9.53;;;5.80;99.90;;;;;;1823667;76;21061;-73
2021/10/27 07:19:53;;;;;;;13.38;8.45;;;5.80;99.90;;;;;;1874319;76;21147;-73
2021/10/27 07:22:19;;;;;;;12.37;8.20;;;5.80;99.90;;;;;;1863817;74;21087;-73
2021/10/27 07:24:45;;;;;;;16.73;9.03;;;5.80;99.90;;;;;;1862644;76;21081;-72
2021/10/27 07:27:12;;;;;;;17.02;8.13;;;5.90;99.90;;;;;;1867548;76;21157;-72
2021/10/27 07:29:38;;;;;;;26.62;9.30;;;6.00;99.90;;;;;;1883994;76;21165;-72
2021/10/27 07:32:07;;;;;;;15.50;8.15;;;6.00;99.90;;;;;;1883825;75;21472;-73
2021/10/27 07:34:38;;;;;;;12.03;7.97;;;6.00;99.90;;;;;;1862191;75;21211;-73
2021/10/27 07:42:31;;;;;;;36.13;7.92;;;6.00;99.90;;;;;;1878527;75;21101;-74
2021/10/27 07:44:57;;;;;;;15.90;8.33;;;6.00;99.90;;;;;;1862000;76;21093;-74
2021/10/27 07:47:23;;;;;;;15.88;8.85;;;6.00;99.90;;;;;;1865595;75;21163;-70
2021/10/27 07:49:49;;;;;;;10.35;7.53;;;6.10;99.90;;;;;;1886750;75;21095;-74
2021/10/27 07:52:15;;;;;;;13.83;7.60;;;6.20;99.90;;;;;;1881110;74;21340;-73
2021/10/27 07:54:42;;;;;;;9.30;7.53;;;6.10;99.90;;;;;;1878454;75;21092;-77
2021/10/27 07:57:08;;;;;;;9.90;6.83;;;6.20;99.90;;;;;;1870877;75;21182;-74
2021/10/27 07:59:34;;;;;;;12.25;7.55;;;6.20;99.90;;;;;;1870388;74;21554;-73
2021/10/27 08:02:03;;;;;;;8.80;6.90;;;6.30;99.90;;;;;;1854309;74;21084;-74
2021/10/27 08:04:28;;;;;;;10.18;7.22;;;6.30;99.90;;;;;;1860249;75;21521;-75
2021/10/27 08:06:54;;;;;;;9.18;6.83;;;6.40;99.90;;;;;;1869968;75;21512;-76
2021/10/27 08:09:20;;;;;;;8.75;6.17;;;6.40;99.90;;;;;;1861795;75;21472;-76
2021/10/27 08:11:46;;;;;;;8.53;6.42;;;6.40;99.90;;;;;;1876978;75;21089;-75
2021/10/27 08:14:12;;;;;;;6.03;5.47;;;6.20;99.90;;;;;;1883661;74;21079;-75
2021/10/27 08:16:38;;;;;;;6.78;5.37;;;6.20;99.90;;;;;;1880237;75;21088;-77
2021/10/27 08:19:05;;;;;;;10.25;6.78;;;6.30;99.90;;;;;;1880936;75;21080;-75
2021/10/27 08:21:31;;;;;;;8.20;6.30;;;6.20;99.90;;;;;;1857611;76;21092;-78
2021/10/27 08:23:57;;;;;;;8.65;6.83;;;6.10;99.90;;;;;;1864592;76;21164;-74
2021/10/27 08:26:25;;;;;;;19.67;9.73;;;6.20;99.90;;;;;;1864101;76;21218;-75
2021/10/27 08:28:55;;;;;;;15.20;8.45;;;6.30;99.90;;;;;;1871874;76;21195;-74
2021/10/27 08:34:37;;;;;;;10.68;8.50;;;6.40;99.90;;;;;;1874665;76;21121;-73
2021/10/27 08:36:18;;;;;;;11.15;7.97;;;6.60;99.90;;;;;;1822611;76;21468;-75
2021/10/27 08:38:46;;;;;;;10.63;7.55;;;6.70;99.90;;;;;;1864494;74;21077;-74
2021/10/27 08:41:13;;;;;;;11.43;7.60;;;6.90;99.90;;;;;;1883326;75;21084;-73
2021/10/27 08:43:39;;;;;;;10.32;7.37;;;7.00;99.90;;;;;;1862302;74;21085;-75
2021/10/27 08:46:05;;;;;;;9.43;6.87;;;7.10;99.90;;;;;;1873757;74;21154;-74
2021/10/27 08:48:31;;;;;;;11.35;7.12;;;7.30;99.90;;;;;;1859551;76;21507;-75
2021/10/27 08:50:58;;;;;;;9.95;7.37;;;7.30;99.90;;;;;;1865294;75;21166;-74
2021/10/27 08:53:25;;;;;;;9.18;6.87;;;7.50;99.90;;;;;;1879364;74;21162;-73
2021/10/27 08:55:52;;;;;;;9.90;6.67;;;7.60;99.90;;;;;;1884380;74;21211;-73
2021/10/27 08:58:28;;;;;;;10.78;6.55;;;7.60;99.90;;;;;;1879829;74;21622;-75
2021/10/27 09:01:02;;;;;;;10.58;7.62;;;7.80;99.90;;;;;;1860628;75;21134;-73
2021/10/27 09:03:25;;;;;;;8.88;6.22;;;7.90;99.90;;;;;;1874871;74;21150;-73
2021/10/27 09:05:54;;;;;;;9.60;6.25;;;7.90;99.90;;;;;;1871807;75;21256;-73
2021/10/27 09:16:18;;;;;;;10.10;5.90;;;8.10;99.90;;;;;;1868437;74;21548;-73
2021/10/27 09:37:41;;;;;;;6.67;5.97;;;8.80;99.90;;;;;;1881374;75;21095;-74
2021/10/27 09:42:49;;;;;;;7.80;5.87;;;9.40;99.90;;;;;;1864468;75;21069;-74
2021/10/27 09:55:29;;;;;;;11.35;5.85;;;10.10;99.90;;;;;;1879778;74;21075;-74
2021/10/27 10:06:43;;;;;;;6.90;4.92;;;11.80;99.90;;;;;;1835191;76;21156;-74
2021/10/27 10:09:09;;;;;;;6.37;4.97;;;12.20;99.90;;;;;;1857343;75;21639;-74
2021/10/27 10:11:36;;;;;;;15.48;5.17;;;12.10;99.90;;;;;;1863378;75;21549;-74
2021/10/27 10:14:04;;;;;;;6.95;4.97;;;12.50;99.90;;;;;;1867868;75;21178;-74
2021/10/27 10:16:31;;;;;;;10.13;5.45;;;12.80;99.90;;;;;;1878333;74;21170;-75
2021/10/27 10:18:59;;;;;;;6.00;4.65;;;12.80;99.90;;;;;;1871502;74;21069;-74
2021/10/27 10:21:29;;;;;;;6.78;4.65;;;12.70;99.90;;;;;;1876672;76;21079;-74
2021/10/27 10:23:55;;;;;;;5.72;4.87;;;12.40;99.90;;;;;;1880298;76;21096;-74
2021/10/27 10:26:22;;;;;;;8.50;5.90;;;12.20;99.90;;;;;;1887023;74;21555;-73
2021/10/27 10:28:48;;;;;;;9.73;5.00;;;12.30;99.90;;;;;;1861193;76;21516;-74
2021/10/27 10:31:14;;;;;;;5.97;4.72;;;12.40;99.90;;;;;;1873952;76;21616;-74
2021/10/27 10:33:44;;;;;;;7.28;5.10;;;12.60;99.90;;;;;;1878932;74;21096;-73
2021/10/27 10:36:15;;;;;;;6.95;5.50;;;12.50;99.90;;;;;;1883425;75;21206;-74
2021/10/27 10:38:48;;;;;;;;;;;12.50;99.90;;;;;;1877526;75;21064;-74
2021/10/27 10:57:21;;;;;;;9.88;6.75;;;13.80;99.90;;;;;;1873859;74;21520;-74
2021/10/27 11:26:11;;;;;;;9.18;5.55;;;16.00;99.90;;;;;;1876753;74;21142;-72
2021/10/27 11:42:18;;;;;;;10.28;6.20;;;17.10;99.90;;;;;;1856274;75;21506;-76
2021/10/27 11:44:47;;;;;;;19.70;5.62;;;17.80;99.90;;;;;;1873746;75;21089;-77
2021/10/27 11:47:11;;;;;;;12.37;5.60;;;17.40;99.90;;;;;;1862673;75;21129;-80
2021/10/27 11:49:40;;;;;;;9.88;5.28;;;17.10;99.90;;;;;;1859894;75;21074;-79
2021/10/27 11:52:05;;;;;;;10.15;6.03;;;16.90;99.90;;;;;;1881170;74;21158;-80
2021/10/27 11:54:32;;;;;;;9.08;4.97;;;17.30;99.90;;;;;;1857432;75;21137;-80
2021/10/27 11:56:58;;;;;;;7.22;5.20;;;17.40;99.90;;;;;;1865033;76;21077;-79
2021/10/27 11:59:25;;;;;;;12.00;6.05;;;17.00;99.90;;;;;;1877643;75;21096;-78
2021/10/27 12:01:52;;;;;;;8.15;5.62;;;17.50;99.90;;;;;;1860139;75;21162;-78
2021/10/27 12:04:19;;;;;;;6.03;4.58;;;18.10;99.90;;;;;;1861032;74;21206;-79
2021/10/27 12:07:01;;;;;;;8.70;5.00;;;19.40;99.90;;;;;;1871738;75;21104;-78
2021/10/27 12:12:32;;;;;;;10.32;4.70;;;19.20;99.90;;;;;;1873940;74;21114;-78
2021/10/27 12:15:09;;;;;;;6.15;4.70;;;19.20;99.90;;;;;;1860584;74;21178;-79
2021/10/27 12:17:33;;;;;;;5.97;4.25;;;19.80;99.90;;;;;;1876511;73;21477;-78
2021/10/27 12:19:58;;;;;;;8.75;5.05;;;20.30;99.90;;;;;;1854695;74;21418;-79
2021/10/27 12:22:24;;;;;;;6.47;4.50;;;19.50;99.90;;;;;;1860451;75;21489;-79
2021/10/27 12:24:50;;;;;;;11.48;4.90;;;19.10;99.90;;;;;;1865551;74;21157;-80
2021/10/27 12:27:20;;;;;;;10.08;4.35;;;19.10;99.90;;;;;;1880851;74;21464;-80
2021/10/27 12:29:44;;;;;;;6.15;3.83;;;19.40;99.90;;;;;;1872471;75;21248;-80
2021/10/27 12:32:12;;;;;;;7.62;3.95;;;19.10;99.90;;;;;;1868751;75;21074;-78
2021/10/27 12:34:38;;;;;;;10.23;3.80;;;19.00;99.90;;;;;;1875292;75;21086;-76
2021/10/27 12:37:05;;;;;;;7.95;3.67;;;19.00;99.90;;;;;;1864967;75;21099;-74
2021/10/27 12:39:35;;;;;;;8.50;3.55;;;19.80;99.90;;;;;;1890174;74;21080;-73
2021/10/27 12:42:00;;;;;;;5.05;3.42;;;20.30;99.90;;;;;;1863562;75;21486;-74
2021/10/27 12:44:27;;;;;;;8.00;3.52;;;20.40;99.90;;;;;;1849386;75;21085;-73
2021/10/27 12:46:53;;;;;;;5.72;3.70;;;20.60;99.90;;;;;;1875393;75;21510;-74
2021/10/27 12:49:19;;;;;;;8.43;3.40;;;20.50;99.90;;;;;;1850900;76;21081;-76
2021/10/27 12:51:47;;;;;;;8.70;4.53;;;19.90;99.90;;;;;;1870763;76;21154;-75
2021/10/27 12:54:13;;;;;;;7.70;3.47;;;20.10;99.90;;;;;;1866758;75;21274;-76
2021/10/27 12:56:39;;;;;;;5.80;3.08;;;20.80;99.90;;;;;;1864964;75;21102;-76
2021/10/27 12:59:08;;;;;;;5.87;3.12;;;21.00;99.90;;;;;;1862972;75;21077;-77
2021/10/27 13:04:19;;;;;;;4.42;2.67;;;22.20;99.90;;;;;;1873328;75;21107;-78
2021/10/27 13:14:41;;;;;;;9.33;5.85;;;21.00;99.90;;;;;;1865827;75;21045;-78
2021/10/27 13:22:30;;;;;;;4.67;2.90;;;21.60;99.90;;;;;;1858354;76;21061;-79
2021/10/27 13:30:29;;;;;;;5.75;3.12;;;21.90;99.90;;;;;;1883383;75;21158;-78
2021/10/27 13:32:54;;;;;;;4.50;2.83;;;21.90;99.90;;;;;;1867811;75;21220;-78
2021/10/27 13:35:19;;;;;;;5.53;2.87;;;21.10;99.90;;;;;;1876471;74;21468;-79
2021/10/27 13:37:45;;;;;;;5.90;2.87;;;21.20;99.90;;;;;;1885017;75;21095;-79
2021/10/27 13:40:12;;;;;;;11.65;3.00;;;21.10;99.90;;;;;;1866733;75;21075;-79
2021/10/27 13:42:45;;;;;;;3.92;2.67;;;21.80;99.90;;;;;;1877868;76;21209;-79
2021/10/27 13:58:44;;;;;;;5.12;2.70;;;21.40;99.90;;;;;;1874974;75;21493;-77
2021/10/27 14:06:42;;;;;;;6.65;2.50;;;22.20;99.90;;;;;;1885476;74;21078;-77
2021/10/27 14:09:09;;;;;;;7.62;2.80;;;22.40;99.90;;;;;;1850770;76;21541;-79
2021/10/27 14:11:40;;;;;;;12.70;2.80;;;22.10;99.90;;;;;;1876591;75;21180;-79
2021/10/27 14:14:07;;;;;;;5.60;2.42;;;21.90;99.90;;;;;;1875096;75;21174;-76
2021/10/27 14:19:30;;;;;;;8.58;2.87;;;22.20;99.90;;;;;;1862577;75;21152;-79
2021/10/27 14:40:59;;;;;;;4.58;2.72;;;22.20;99.90;;;;;;1870420;75;21370;-78
2021/10/27 15:21:29;;;;;;;3.40;1.52;;;20.30;99.90;;;;;;1871128;75;21536;-72
2021/10/27 15:24:06;;;;;;;3.17;1.50;;;20.30;99.90;;;;;;1862425;75;21093;-73
2021/10/27 15:29:08;;;;;;;1.87;1.60;;;20.10;99.90;;;;;;1878103;76;21146;-74
2021/10/27 15:34:30;;;;;;;2.83;1.60;;;20.00;99.90;;;;;;1871044;75;21145;-75
2021/10/27 15:40:17;;;;;;;3.17;2.10;;;19.80;99.90;;;;;;1874160;75;21220;-75
2021/10/27 15:44:38;;;;;;;2.22;1.70;;;18.70;99.90;;;;;;1869531;75;21152;-75
2021/10/27 15:52:27;;;;;;;3.55;1.30;;;17.40;99.90;;;;;;1882242;75;21512;-75
2021/10/27 15:54:54;;;;;;;4.28;1.62;;;16.90;99.90;;;;;;1876549;76;21084;-75
2021/10/27 15:57:20;;;;;;;6.30;1.32;;;16.50;99.90;;;;;;1872612;76;21083;-75
2021/10/27 15:59:46;;;;;;;2.27;1.60;;;16.10;99.90;;;;;;1873559;74;21064;-75
2021/10/27 16:02:12;;;;;;;4.75;2.17;;;15.70;99.90;;;;;;1886263;76;21527;-76
2021/10/27 16:04:39;;;;;;;3.05;1.85;;;15.40;99.90;;;;;;1870472;75;21089;-76
2021/10/27 16:07:06;;;;;;;2.80;1.85;;;15.20;99.90;;;;;;1868630;75;21099;-75
2021/10/27 16:09:44;;;;;;;3.17;1.87;;;14.90;99.90;;;;;;1859143;76;21089;-75
2021/10/27 16:12:09;;;;;;;4.65;2.00;;;14.70;99.90;;;;;;1882980;75;21456;-74
2021/10/27 16:14:36;;;;;;;5.87;1.77;;;14.40;99.90;;;;;;1884032;75;21506;-76
2021/10/27 16:17:02;;;;;;;7.33;2.00;;;14.20;99.90;;;;;;1875727;75;21091;-75
2021/10/27 16:19:29;;;;;;;4.25;2.05;;;14.00;99.90;;;;;;1881186;76;21743;-76
2021/10/27 16:21:56;;;;;;;4.12;1.52;;;13.80;99.90;;;;;;1884640;75;21190;-76
2021/10/27 16:24:22;;;;;;;4.60;2.22;;;13.60;99.90;;;;;;1868279;75;21099;-75
2021/10/27 16:26:48;;;;;;;4.15;2.50;;;13.50;99.90;;;;;;1874332;76;21185;-75
2021/10/27 16:29:14;;;;;;;2.37;2.00;;;13.40;99.90;;;;;;1877322;75;21495;-77
2021/10/27 16:31:41;;;;;;;5.28;2.42;;;13.40;99.90;;;;;;1868863;74;21165;-77
2021/10/27 16:34:09;;;;;;;4.78;2.70;;;13.20;99.90;;;;;;1874093;74;21091;-77
2021/10/27 16:36:35;;;;;;;4.78;2.83;;;13.00;99.90;;;;;;1855725;75;21232;-77
2021/10/27 16:39:01;;;;;;;4.83;2.90;;;12.90;99.90;;;;;;1869537;74;21178;-77
2021/10/27 16:41:28;;;;;;;6.83;3.52;;;12.70;99.90;;;;;;1861937;74;21060;-77
2021/10/27 16:43:54;;;;;;;4.92;2.98;;;12.60;99.90;;;;;;1864953;75;21590;-77
2021/10/27 16:46:20;;;;;;;4.45;3.12;;;12.50;99.90;;;;;;1875289;76;21476;-77
2021/10/27 16:48:46;;;;;;;6.87;3.58;;;12.30;99.90;;;;;;1867502;75;21717;-77
2021/10/27 16:51:12;;;;;;;8.30;3.85;;;12.20;99.90;;;;;;1887095;75;21131;-77
2021/10/27 16:53:38;;;;;;;6.50;3.33;;;12.10;99.90;;;;;;1865247;75;21083;-77
2021/10/27 16:56:05;;;;;;;6.90;3.92;;;12.00;99.90;;;;;;1868338;76;21079;-78
2021/10/27 16:58:31;;;;;;;8.38;3.35;;;12.00;99.90;;;;;;1864844;75;21084;-77
2021/10/27 17:00:58;;;;;;;5.28;3.45;;;11.90;99.90;;;;;;1883929;75;21488;-78
2021/10/27 17:03:24;;;;;;;5.30;3.05;;;11.80;99.90;;;;;;1884960;75;21189;-79
2021/10/27 17:05:51;;;;;;;6.85;3.47;;;11.70;99.90;;;;;;1865254;75;21146;-76
2021/10/27 17:08:17;;;;;;;5.28;2.98;;;11.70;99.90;;;;;;1860906;75;21516;-79